Terminal Aerodrome Forecast
Issued by NWS

Home | Current Version | Previous Version | Graphics & Text | Print | Product List | Glossary On
Versions: 1 2 3 4 5 6 7 8 9 10 11 12 13
000
FTUS43 KIWX 250528
TAFSBN
TAF
KSBN 250528Z 2506/2606 20006KT P6SM FEW040 SCT250
     FM251500 24009KT P6SM BKN040
     FM251800 26008KT P6SM VCSH BKN040
     FM252200 30009KT P6SM SCT040
     FM260100 34005KT P6SM FEW040 SCT200=

USA.gov is the U.S. government's official web portal to all federal, state and local government web resources and services.